East Wittering, United Kingdom
Current Conditions -  °F | °C
As of 11:20 AM on Friday 31 Oct 2014 (Local Time) from EGHI Reporting Station
Clear Clear  
Wind Chill: 66°   Ceiling: Unl
Heat Index: 66°   Visibility: 6mi
Dew Point: 55°   Wind: 6mph
Humidity: 68%   Direction: 150°SSE
Pressure: 30.03"   Gusts: NA
Location:  50.77°N, 0.87°W
Report Text: EGHI 311120Z 15005KT 100V190 CAVOK 19/13 Q1017
Loading
Personal Weather Stations






























Interactive Weather Map
Tropical Storm Tracking
New forecast layout! Learn more

10-Day Weather Forecast

Advertisements
Track Severe Weather on mobile